sensor_id;sensor_type;location;lat;lon;timestamp;P1;durP1;ratioP1;P2;durP2;ratioP2
20832;SDS011;56075;51.264;7.150;2022-11-20T00:01:56;16.00;;;6.67;;
20832;SDS011;56075;51.264;7.150;2022-11-20T00:04:27;15.60;;;6.77;;
20832;SDS011;56075;51.264;7.150;2022-11-20T00:06:58;15.67;;;6.73;;
20832;SDS011;56075;51.264;7.150;2022-11-20T00:09:30;17.53;;;6.70;;
20832;SDS011;56075;51.264;7.150;2022-11-20T00:12:01;17.27;;;6.10;;
20832;SDS011;56075;51.264;7.150;2022-11-20T00:14:32;15.33;;;6.03;;
20832;SDS011;56075;51.264;7.150;2022-11-20T00:17:04;17.30;;;6.43;;
20832;SDS011;56075;51.264;7.150;2022-11-20T00:19:35;16.40;;;6.73;;
20832;SDS011;56075;51.264;7.150;2022-11-20T00:22:06;16.07;;;7.07;;
20832;SDS011;56075;51.264;7.150;2022-11-20T00:24:38;18.80;;;6.60;;
20832;SDS011;56075;51.264;7.150;2022-11-20T00:27:09;16.43;;;7.10;;
20832;SDS011;56075;51.264;7.150;2022-11-20T00:29:40;20.07;;;7.40;;
20832;SDS011;56075;51.264;7.150;2022-11-20T00:32:12;17.73;;;6.73;;
20832;SDS011;56075;51.264;7.150;2022-11-20T00:34:43;17.60;;;6.67;;
20832;SDS011;56075;51.264;7.150;2022-11-20T00:37:15;17.57;;;6.47;;
20832;SDS011;56075;51.264;7.150;2022-11-20T00:39:46;22.40;;;7.17;;
20832;SDS011;56075;51.264;7.150;2022-11-20T00:42:18;19.90;;;7.53;;
20832;SDS011;56075;51.264;7.150;2022-11-20T00:44:49;19.10;;;7.53;;
20832;SDS011;56075;51.264;7.150;2022-11-20T00:47:21;20.63;;;7.10;;
20832;SDS011;56075;51.264;7.150;2022-11-20T00:49:52;23.60;;;7.20;;
20832;SDS011;56075;51.264;7.150;2022-11-20T00:52:23;22.17;;;7.40;;
20832;SDS011;56075;51.264;7.150;2022-11-20T00:54:55;22.10;;;7.03;;
20832;SDS011;56075;51.264;7.150;2022-11-20T00:57:26;19.67;;;7.30;;
20832;SDS011;56075;51.264;7.150;2022-11-20T00:59:57;22.80;;;7.67;;
20832;SDS011;56075;51.264;7.150;2022-11-20T01:02:29;21.93;;;7.37;;
20832;SDS011;56075;51.264;7.150;2022-11-20T01:05:00;19.07;;;7.20;;
20832;SDS011;56075;51.264;7.150;2022-11-20T01:07:32;18.97;;;7.27;;
20832;SDS011;56075;51.264;7.150;2022-11-20T01:10:04;20.03;;;7.40;;
20832;SDS011;56075;51.264;7.150;2022-11-20T01:12:35;18.23;;;7.20;;
20832;SDS011;56075;51.264;7.150;2022-11-20T01:15:07;16.10;;;5.77;;
20832;SDS011;56075;51.264;7.150;2022-11-20T01:17:38;14.47;;;5.83;;
20832;SDS011;56075;51.264;7.150;2022-11-20T01:20:10;17.90;;;6.70;;
20832;SDS011;56075;51.264;7.150;2022-11-20T01:22:41;15.50;;;6.07;;
20832;SDS011;56075;51.264;7.150;2022-11-20T01:25:12;18.67;;;6.33;;
20832;SDS011;56075;51.264;7.150;2022-11-20T01:27:44;21.40;;;7.60;;
20832;SDS011;56075;51.264;7.150;2022-11-20T01:30:15;20.60;;;7.97;;
20832;SDS011;56075;51.264;7.150;2022-11-20T01:32:47;21.33;;;7.33;;
20832;SDS011;56075;51.264;7.150;2022-11-20T01:35:18;21.00;;;7.63;;
20832;SDS011;56075;51.264;7.150;2022-11-20T01:37:50;17.93;;;7.00;;
20832;SDS011;56075;51.264;7.150;2022-11-20T01:40:21;19.73;;;7.43;;
20832;SDS011;56075;51.264;7.150;2022-11-20T01:42:55;19.23;;;7.10;;
20832;SDS011;56075;51.264;7.150;2022-11-20T01:46:32;18.97;;;7.70;;
20832;SDS011;56075;51.264;7.150;2022-11-20T01:54:03;20.53;;;7.90;;
20832;SDS011;56075;51.264;7.150;2022-11-20T01:56:37;18.40;;;7.50;;
20832;SDS011;56075;51.264;7.150;2022-11-20T01:59:09;15.53;;;6.90;;
20832;SDS011;56075;51.264;7.150;2022-11-20T02:01:41;25.40;;;8.93;;
20832;SDS011;56075;51.264;7.150;2022-11-20T02:04:13;20.60;;;7.77;;
20832;SDS011;56075;51.264;7.150;2022-11-20T02:06:50;18.03;;;7.33;;
20832;SDS011;56075;51.264;7.150;2022-11-20T02:09:23;15.73;;;6.17;;
20832;SDS011;56075;51.264;7.150;2022-11-20T02:11:54;13.50;;;5.73;;
20832;SDS011;56075;51.264;7.150;2022-11-20T02:14:26;19.53;;;7.63;;
20832;SDS011;56075;51.264;7.150;2022-11-20T02:16:58;12.00;;;5.53;;
20832;SDS011;56075;51.264;7.150;2022-11-20T02:19:30;19.47;;;7.77;;
20832;SDS011;56075;51.264;7.150;2022-11-20T02:22:07;22.50;;;6.93;;
20832;SDS011;56075;51.264;7.150;2022-11-20T02:24:41;17.20;;;7.07;;
20832;SDS011;56075;51.264;7.150;2022-11-20T02:27:14;16.60;;;7.30;;
20832;SDS011;56075;51.264;7.150;2022-11-20T02:29:51;24.67;;;8.67;;
20832;SDS011;56075;51.264;7.150;2022-11-20T02:32:24;25.27;;;9.30;;
20832;SDS011;56075;51.264;7.150;2022-11-20T02:34:56;19.23;;;7.60;;
20832;SDS011;56075;51.264;7.150;2022-11-20T02:37:29;21.63;;;7.90;;
20832;SDS011;56075;51.264;7.150;2022-11-20T02:40:01;18.53;;;8.20;;
20832;SDS011;56075;51.264;7.150;2022-11-20T02:42:33;21.20;;;8.57;;
20832;SDS011;56075;51.264;7.150;2022-11-20T02:45:04;22.57;;;8.77;;
20832;SDS011;56075;51.264;7.150;2022-11-20T02:47:36;21.97;;;8.67;;
20832;SDS011;56075;51.264;7.150;2022-11-20T02:50:07;24.00;;;8.93;;
20832;SDS011;56075;51.264;7.150;2022-11-20T02:52:39;20.87;;;8.40;;
20832;SDS011;56075;51.264;7.150;2022-11-20T02:55:11;20.77;;;8.60;;
20832;SDS011;56075;51.264;7.150;2022-11-20T02:57:42;19.10;;;8.30;;
20832;SDS011;56075;51.264;7.150;2022-11-20T03:00:13;23.33;;;9.27;;
20832;SDS011;56075;51.264;7.150;2022-11-20T03:02:45;20.77;;;8.47;;
20832;SDS011;56075;51.264;7.150;2022-11-20T03:05:16;23.33;;;9.27;;
20832;SDS011;56075;51.264;7.150;2022-11-20T03:07:48;21.90;;;8.40;;
20832;SDS011;56075;51.264;7.150;2022-11-20T03:10:19;22.23;;;9.40;;
20832;SDS011;56075;51.264;7.150;2022-11-20T03:12:54;22.10;;;9.33;;
20832;SDS011;56075;51.264;7.150;2022-11-20T03:15:25;24.73;;;10.00;;
20832;SDS011;56075;51.264;7.150;2022-11-20T03:17:57;25.03;;;9.53;;
20832;SDS011;56075;51.264;7.150;2022-11-20T03:20:28;21.77;;;9.13;;
20832;SDS011;56075;51.264;7.150;2022-11-20T03:23:00;21.00;;;8.93;;
20832;SDS011;56075;51.264;7.150;2022-11-20T03:25:32;24.67;;;9.33;;
20832;SDS011;56075;51.264;7.150;2022-11-20T03:28:03;20.43;;;9.00;;
20832;SDS011;56075;51.264;7.150;2022-11-20T03:30:35;28.07;;;10.47;;
20832;SDS011;56075;51.264;7.150;2022-11-20T03:33:06;21.80;;;9.50;;
20832;SDS011;56075;51.264;7.150;2022-11-20T03:35:38;21.77;;;9.33;;
20832;SDS011;56075;51.264;7.150;2022-11-20T03:38:09;22.23;;;8.93;;
20832;SDS011;56075;51.264;7.150;2022-11-20T03:40:41;22.93;;;9.30;;
20832;SDS011;56075;51.264;7.150;2022-11-20T03:43:12;24.27;;;9.53;;
20832;SDS011;56075;51.264;7.150;2022-11-20T03:45:43;25.77;;;9.80;;
20832;SDS011;56075;51.264;7.150;2022-11-20T03:48:15;19.43;;;7.93;;
20832;SDS011;56075;51.264;7.150;2022-11-20T03:50:46;21.97;;;7.40;;
20832;SDS011;56075;51.264;7.150;2022-11-20T03:53:18;23.87;;;9.70;;
20832;SDS011;56075;51.264;7.150;2022-11-20T03:55:52;20.67;;;8.27;;
20832;SDS011;56075;51.264;7.150;2022-11-20T03:58:24;25.13;;;10.10;;
20832;SDS011;56075;51.264;7.150;2022-11-20T04:00:55;23.37;;;9.63;;
20832;SDS011;56075;51.264;7.150;2022-11-20T04:03:27;22.77;;;8.97;;
20832;SDS011;56075;51.264;7.150;2022-11-20T04:06:01;19.87;;;7.90;;
20832;SDS011;56075;51.264;7.150;2022-11-20T04:08:32;27.50;;;9.73;;
20832;SDS011;56075;51.264;7.150;2022-11-20T04:11:11;23.83;;;9.23;;
20832;SDS011;56075;51.264;7.150;2022-11-20T04:13:46;23.67;;;8.63;;
20832;SDS011;56075;51.264;7.150;2022-11-20T04:16:18;25.53;;;10.03;;
20832;SDS011;56075;51.264;7.150;2022-11-20T04:18:53;13.83;;;6.23;;
20832;SDS011;56075;51.264;7.150;2022-11-20T04:21:26;19.53;;;7.43;;
20832;SDS011;56075;51.264;7.150;2022-11-20T04:23:57;17.30;;;7.23;;
20832;SDS011;56075;51.264;7.150;2022-11-20T04:26:29;19.23;;;7.57;;
20832;SDS011;56075;51.264;7.150;2022-11-20T04:29:01;20.20;;;8.40;;
20832;SDS011;56075;51.264;7.150;2022-11-20T04:31:33;22.73;;;8.93;;
20832;SDS011;56075;51.264;7.150;2022-11-20T04:34:05;24.10;;;9.40;;
20832;SDS011;56075;51.264;7.150;2022-11-20T04:36:37;21.60;;;8.80;;
20832;SDS011;56075;51.264;7.150;2022-11-20T04:39:11;22.37;;;7.90;;
20832;SDS011;56075;51.264;7.150;2022-11-20T04:41:43;20.27;;;7.90;;
20832;SDS011;56075;51.264;7.150;2022-11-20T04:44:14;20.33;;;7.90;;
20832;SDS011;56075;51.264;7.150;2022-11-20T04:46:46;17.60;;;6.93;;
20832;SDS011;56075;51.264;7.150;2022-11-20T04:49:17;24.37;;;9.53;;
20832;SDS011;56075;51.264;7.150;2022-11-20T04:51:49;19.57;;;7.17;;
20832;SDS011;56075;51.264;7.150;2022-11-20T04:54:20;26.33;;;9.67;;
20832;SDS011;56075;51.264;7.150;2022-11-20T04:56:51;26.73;;;10.57;;
20832;SDS011;56075;51.264;7.150;2022-11-20T04:59:23;19.37;;;7.13;;
20832;SDS011;56075;51.264;7.150;2022-11-20T05:01:54;26.63;;;9.87;;
20832;SDS011;56075;51.264;7.150;2022-11-20T05:04:26;26.50;;;10.23;;
20832;SDS011;56075;51.264;7.150;2022-11-20T05:06:57;24.97;;;9.77;;
20832;SDS011;56075;51.264;7.150;2022-11-20T05:09:29;24.53;;;9.53;;
20832;SDS011;56075;51.264;7.150;2022-11-20T05:12:00;23.53;;;9.97;;
20832;SDS011;56075;51.264;7.150;2022-11-20T05:14:32;22.70;;;9.83;;
20832;SDS011;56075;51.264;7.150;2022-11-20T05:17:03;24.43;;;10.77;;
20832;SDS011;56075;51.264;7.150;2022-11-20T05:19:34;27.07;;;10.37;;
20832;SDS011;56075;51.264;7.150;2022-11-20T05:22:06;25.30;;;9.80;;
20832;SDS011;56075;51.264;7.150;2022-11-20T05:24:37;27.03;;;10.40;;
20832;SDS011;56075;51.264;7.150;2022-11-20T05:27:09;27.67;;;10.20;;
20832;SDS011;56075;51.264;7.150;2022-11-20T05:29:40;22.83;;;9.43;;
20832;SDS011;56075;51.264;7.150;2022-11-20T05:32:11;23.83;;;9.60;;
20832;SDS011;56075;51.264;7.150;2022-11-20T05:34:42;25.00;;;10.50;;
20832;SDS011;56075;51.264;7.150;2022-11-20T05:37:14;26.90;;;10.33;;
20832;SDS011;56075;51.264;7.150;2022-11-20T05:39:45;25.70;;;9.60;;
20832;SDS011;56075;51.264;7.150;2022-11-20T05:42:16;21.73;;;9.00;;
20832;SDS011;56075;51.264;7.150;2022-11-20T05:45:04;27.17;;;9.47;;
20832;SDS011;56075;51.264;7.150;2022-11-20T05:47:36;23.40;;;9.77;;
20832;SDS011;56075;51.264;7.150;2022-11-20T05:50:07;25.97;;;9.67;;
20832;SDS011;56075;51.264;7.150;2022-11-20T05:52:38;23.23;;;9.33;;
20832;SDS011;56075;51.264;7.150;2022-11-20T05:55:10;22.47;;;9.37;;
20832;SDS011;56075;51.264;7.150;2022-11-20T05:57:41;24.83;;;10.20;;
20832;SDS011;56075;51.264;7.150;2022-11-20T06:00:13;24.50;;;9.47;;
20832;SDS011;56075;51.264;7.150;2022-11-20T06:02:45;20.60;;;9.37;;
20832;SDS011;56075;51.264;7.150;2022-11-20T06:05:16;23.00;;;9.27;;
20832;SDS011;56075;51.264;7.150;2022-11-20T06:07:48;21.73;;;9.50;;
20832;SDS011;56075;51.264;7.150;2022-11-20T06:10:19;24.10;;;9.43;;
20832;SDS011;56075;51.264;7.150;2022-11-20T06:12:50;22.43;;;8.47;;
20832;SDS011;56075;51.264;7.150;2022-11-20T06:15:22;26.20;;;9.53;;
20832;SDS011;56075;51.264;7.150;2022-11-20T06:17:54;18.23;;;7.93;;
20832;SDS011;56075;51.264;7.150;2022-11-20T06:20:25;17.47;;;7.07;;
20832;SDS011;56075;51.264;7.150;2022-11-20T06:22:57;19.77;;;8.47;;
20832;SDS011;56075;51.264;7.150;2022-11-20T06:25:28;21.33;;;9.60;;
20832;SDS011;56075;51.264;7.150;2022-11-20T06:27:59;20.30;;;9.07;;
20832;SDS011;56075;51.264;7.150;2022-11-20T06:30:31;21.13;;;8.40;;
20832;SDS011;56075;51.264;7.150;2022-11-20T06:33:02;15.50;;;6.67;;
20832;SDS011;56075;51.264;7.150;2022-11-20T06:35:34;17.53;;;7.50;;
20832;SDS011;56075;51.264;7.150;2022-11-20T06:38:05;19.17;;;7.57;;
20832;SDS011;56075;51.264;7.150;2022-11-20T06:40:39;18.67;;;7.27;;
20832;SDS011;56075;51.264;7.150;2022-11-20T06:43:11;15.80;;;6.77;;
20832;SDS011;56075;51.264;7.150;2022-11-20T06:45:42;18.20;;;7.17;;
20832;SDS011;56075;51.264;7.150;2022-11-20T06:48:13;15.93;;;7.13;;
20832;SDS011;56075;51.264;7.150;2022-11-20T06:50:45;17.67;;;7.33;;
20832;SDS011;56075;51.264;7.150;2022-11-20T06:53:17;16.47;;;6.43;;
20832;SDS011;56075;51.264;7.150;2022-11-20T06:55:48;17.53;;;7.23;;
20832;SDS011;56075;51.264;7.150;2022-11-20T06:58:20;20.13;;;8.00;;
20832;SDS011;56075;51.264;7.150;2022-11-20T07:00:52;17.83;;;7.57;;
20832;SDS011;56075;51.264;7.150;2022-11-20T07:03:23;17.40;;;7.77;;
20832;SDS011;56075;51.264;7.150;2022-11-20T07:05:55;20.03;;;8.53;;
20832;SDS011;56075;51.264;7.150;2022-11-20T07:08:26;19.60;;;8.70;;
20832;SDS011;56075;51.264;7.150;2022-11-20T07:11:01;19.50;;;8.73;;
20832;SDS011;56075;51.264;7.150;2022-11-20T07:13:33;21.57;;;9.20;;
20832;SDS011;56075;51.264;7.150;2022-11-20T07:16:06;17.93;;;7.73;;
20832;SDS011;56075;51.264;7.150;2022-11-20T07:18:38;21.50;;;7.70;;
20832;SDS011;56075;51.264;7.150;2022-11-20T07:21:10;15.43;;;6.77;;
20832;SDS011;56075;51.264;7.150;2022-11-20T07:23:41;13.30;;;5.63;;
20832;SDS011;56075;51.264;7.150;2022-11-20T07:26:13;13.33;;;5.17;;
20832;SDS011;56075;51.264;7.150;2022-11-20T07:28:45;15.87;;;6.90;;
20832;SDS011;56075;51.264;7.150;2022-11-20T07:31:16;14.77;;;6.67;;
20832;SDS011;56075;51.264;7.150;2022-11-20T07:33:48;12.07;;;5.20;;
20832;SDS011;56075;51.264;7.150;2022-11-20T07:36:19;9.63;;;4.33;;
20832;SDS011;56075;51.264;7.150;2022-11-20T07:38:50;13.53;;;6.50;;
20832;SDS011;56075;51.264;7.150;2022-11-20T07:41:22;14.57;;;7.30;;
20832;SDS011;56075;51.264;7.150;2022-11-20T07:43:53;19.47;;;7.90;;
20832;SDS011;56075;51.264;7.150;2022-11-20T07:46:25;15.07;;;6.80;;
20832;SDS011;56075;51.264;7.150;2022-11-20T07:48:56;17.67;;;7.27;;
20832;SDS011;56075;51.264;7.150;2022-11-20T07:51:27;16.47;;;7.03;;
20832;SDS011;56075;51.264;7.150;2022-11-20T07:53:59;19.67;;;7.30;;
20832;SDS011;56075;51.264;7.150;2022-11-20T07:56:31;16.67;;;6.87;;
20832;SDS011;56075;51.264;7.150;2022-11-20T07:59:03;12.53;;;5.57;;
20832;SDS011;56075;51.264;7.150;2022-11-20T08:01:34;14.60;;;5.80;;
20832;SDS011;56075;51.264;7.150;2022-11-20T08:04:05;9.57;;;4.40;;
20832;SDS011;56075;51.264;7.150;2022-11-20T08:06:37;12.20;;;5.10;;
20832;SDS011;56075;51.264;7.150;2022-11-20T08:09:08;13.23;;;5.93;;
20832;SDS011;56075;51.264;7.150;2022-11-20T08:11:40;14.03;;;5.73;;
20832;SDS011;56075;51.264;7.150;2022-11-20T08:14:30;13.33;;;6.07;;
20832;SDS011;56075;51.264;7.150;2022-11-20T08:17:01;13.60;;;6.10;;
20832;SDS011;56075;51.264;7.150;2022-11-20T08:19:33;14.37;;;5.40;;
20832;SDS011;56075;51.264;7.150;2022-11-20T08:22:04;9.30;;;3.93;;
20832;SDS011;56075;51.264;7.150;2022-11-20T08:24:36;9.17;;;4.23;;
20832;SDS011;56075;51.264;7.150;2022-11-20T08:27:07;11.02;;;4.88;;
20832;SDS011;56075;51.264;7.150;2022-11-20T08:29:39;11.20;;;4.57;;
20832;SDS011;56075;51.264;7.150;2022-11-20T08:32:12;9.87;;;3.90;;
20832;SDS011;56075;51.264;7.150;2022-11-20T08:34:46;8.30;;;3.53;;
20832;SDS011;56075;51.264;7.150;2022-11-20T08:37:17;9.00;;;4.07;;
20832;SDS011;56075;51.264;7.150;2022-11-20T08:39:49;10.83;;;4.37;;
20832;SDS011;56075;51.264;7.150;2022-11-20T08:42:20;10.03;;;4.40;;
20832;SDS011;56075;51.264;7.150;2022-11-20T08:44:52;11.20;;;4.70;;
20832;SDS011;56075;51.264;7.150;2022-11-20T08:47:23;11.03;;;4.50;;
20832;SDS011;56075;51.264;7.150;2022-11-20T08:49:55;13.40;;;5.70;;
20832;SDS011;56075;51.264;7.150;2022-11-20T08:52:26;9.40;;;4.60;;
20832;SDS011;56075;51.264;7.150;2022-11-20T08:54:58;12.67;;;5.63;;
20832;SDS011;56075;51.264;7.150;2022-11-20T08:57:33;13.33;;;5.53;;
20832;SDS011;56075;51.264;7.150;2022-11-20T09:00:05;10.63;;;4.50;;
20832;SDS011;56075;51.264;7.150;2022-11-20T09:02:36;10.50;;;4.57;;
20832;SDS011;56075;51.264;7.150;2022-11-20T09:05:08;9.33;;;4.73;;
20832;SDS011;56075;51.264;7.150;2022-11-20T09:07:39;11.03;;;4.47;;
20832;SDS011;56075;51.264;7.150;2022-11-20T09:10:11;8.33;;;4.00;;
20832;SDS011;56075;51.264;7.150;2022-11-20T09:12:42;9.52;;;4.50;;
20832;SDS011;56075;51.264;7.150;2022-11-20T09:15:13;9.60;;;4.27;;
20832;SDS011;56075;51.264;7.150;2022-11-20T09:17:54;9.03;;;4.00;;
20832;SDS011;56075;51.264;7.150;2022-11-20T09:20:30;8.80;;;3.50;;
20832;SDS011;56075;51.264;7.150;2022-11-20T09:23:01;10.53;;;4.20;;
20832;SDS011;56075;51.264;7.150;2022-11-20T09:25:33;8.37;;;3.83;;
20832;SDS011;56075;51.264;7.150;2022-11-20T09:28:04;12.53;;;4.77;;
20832;SDS011;56075;51.264;7.150;2022-11-20T09:30:35;10.67;;;4.90;;
20832;SDS011;56075;51.264;7.150;2022-11-20T09:33:07;11.67;;;4.77;;
20832;SDS011;56075;51.264;7.150;2022-11-20T09:35:38;8.33;;;4.07;;
20832;SDS011;56075;51.264;7.150;2022-11-20T09:38:10;10.43;;;4.60;;
20832;SDS011;56075;51.264;7.150;2022-11-20T09:40:56;8.87;;;3.70;;
20832;SDS011;56075;51.264;7.150;2022-11-20T09:43:46;12.23;;;5.30;;
20832;SDS011;56075;51.264;7.150;2022-11-20T09:51:46;10.07;;;4.60;;
20832;SDS011;56075;51.264;7.150;2022-11-20T09:54:34;11.47;;;4.60;;
20832;SDS011;56075;51.264;7.150;2022-11-20T09:57:11;9.53;;;4.47;;
20832;SDS011;56075;51.264;7.150;2022-11-20T09:59:48;11.23;;;5.10;;
20832;SDS011;56075;51.264;7.150;2022-11-20T10:05:00;9.93;;;4.60;;
20832;SDS011;56075;51.264;7.150;2022-11-20T10:10:36;9.47;;;4.90;;
20832;SDS011;56075;51.264;7.150;2022-11-20T10:19:10;7.90;;;4.07;;
20832;SDS011;56075;51.264;7.150;2022-11-20T10:30:37;13.53;;;6.10;;
20832;SDS011;56075;51.264;7.150;2022-11-20T10:33:21;12.70;;;5.67;;
20832;SDS011;56075;51.264;7.150;2022-11-20T10:36:05;11.43;;;5.30;;
20832;SDS011;56075;51.264;7.150;2022-11-20T10:38:47;11.70;;;5.30;;
20832;SDS011;56075;51.264;7.150;2022-11-20T10:41:26;13.67;;;6.03;;
20832;SDS011;56075;51.264;7.150;2022-11-20T10:44:12;10.23;;;5.10;;
20832;SDS011;56075;51.264;7.150;2022-11-20T10:47:11;13.50;;;6.23;;
20832;SDS011;56075;51.264;7.150;2022-11-20T10:49:52;13.70;;;6.17;;
20832;SDS011;56075;51.264;7.150;2022-11-20T10:58:10;17.13;;;7.33;;
20832;SDS011;56075;51.264;7.150;2022-11-20T11:00:43;16.90;;;6.77;;
20832;SDS011;56075;51.264;7.150;2022-11-20T11:03:27;17.70;;;7.53;;
20832;SDS011;56075;51.264;7.150;2022-11-20T11:06:14;16.53;;;6.87;;
20832;SDS011;56075;51.264;7.150;2022-11-20T11:08:53;19.60;;;6.90;;
20832;SDS011;56075;51.264;7.150;2022-11-20T11:11:30;16.67;;;7.17;;
20832;SDS011;56075;51.264;7.150;2022-11-20T11:14:04;21.30;;;9.13;;
20832;SDS011;56075;51.264;7.150;2022-11-20T11:16:49;20.37;;;9.03;;
20832;SDS011;56075;51.264;7.150;2022-11-20T11:19:22;20.83;;;8.83;;
20832;SDS011;56075;51.264;7.150;2022-11-20T11:21:54;18.83;;;8.67;;
20832;SDS011;56075;51.264;7.150;2022-11-20T11:24:28;19.57;;;8.17;;
20832;SDS011;56075;51.264;7.150;2022-11-20T11:27:01;17.43;;;7.93;;
20832;SDS011;56075;51.264;7.150;2022-11-20T11:29:37;18.33;;;7.97;;
20832;SDS011;56075;51.264;7.150;2022-11-20T11:32:11;19.10;;;8.37;;
20832;SDS011;56075;51.264;7.150;2022-11-20T11:34:44;19.10;;;8.23;;
20832;SDS011;56075;51.264;7.150;2022-11-20T11:37:18;19.00;;;8.13;;
20832;SDS011;56075;51.264;7.150;2022-11-20T11:39:52;22.10;;;9.30;;
20832;SDS011;56075;51.264;7.150;2022-11-20T11:42:24;19.53;;;8.60;;
20832;SDS011;56075;51.264;7.150;2022-11-20T11:44:56;19.30;;;8.90;;
20832;SDS011;56075;51.264;7.150;2022-11-20T12:00:54;23.00;;;10.07;;
20832;SDS011;56075;51.264;7.150;2022-11-20T12:03:35;22.57;;;9.97;;
20832;SDS011;56075;51.264;7.150;2022-11-20T12:06:12;20.20;;;8.97;;
20832;SDS011;56075;51.264;7.150;2022-11-20T12:17:03;17.73;;;8.63;;
20832;SDS011;56075;51.264;7.150;2022-11-20T12:19:35;20.50;;;9.13;;
20832;SDS011;56075;51.264;7.150;2022-11-20T12:30:19;26.37;;;10.60;;
20832;SDS011;56075;51.264;7.150;2022-11-20T12:35:44;22.07;;;9.43;;
20832;SDS011;56075;51.264;7.150;2022-11-20T12:41:22;20.10;;;9.20;;
20832;SDS011;56075;51.264;7.150;2022-11-20T12:53:34;22.20;;;9.37;;
20832;SDS011;56075;51.264;7.150;2022-11-20T13:07:08;22.57;;;9.43;;
20832;SDS011;56075;51.264;7.150;2022-11-20T13:09:43;19.90;;;9.17;;
20832;SDS011;56075;51.264;7.150;2022-11-20T13:12:24;24.40;;;9.60;;
20832;SDS011;56075;51.264;7.150;2022-11-20T13:17:53;22.83;;;9.70;;
20832;SDS011;56075;51.264;7.150;2022-11-20T13:20:25;21.17;;;8.80;;
20832;SDS011;56075;51.264;7.150;2022-11-20T13:22:57;23.97;;;10.30;;
20832;SDS011;56075;51.264;7.150;2022-11-20T13:25:34;21.43;;;9.13;;
20832;SDS011;56075;51.264;7.150;2022-11-20T13:30:53;22.47;;;8.93;;
20832;SDS011;56075;51.264;7.150;2022-11-20T13:33:29;25.77;;;9.60;;
20832;SDS011;56075;51.264;7.150;2022-11-20T13:36:06;23.40;;;9.40;;
20832;SDS011;56075;51.264;7.150;2022-11-20T13:38:47;22.60;;;9.60;;
20832;SDS011;56075;51.264;7.150;2022-11-20T13:41:34;22.90;;;8.93;;
20832;SDS011;56075;51.264;7.150;2022-11-20T13:46:43;24.90;;;10.70;;
20832;SDS011;56075;51.264;7.150;2022-11-20T13:51:50;26.27;;;10.47;;
20832;SDS011;56075;51.264;7.150;2022-11-20T13:57:06;35.40;;;13.87;;
20832;SDS011;56075;51.264;7.150;2022-11-20T14:02:41;17.70;;;7.80;;
20832;SDS011;56075;51.264;7.150;2022-11-20T14:05:22;24.20;;;10.17;;
20832;SDS011;56075;51.264;7.150;2022-11-20T14:07:54;20.10;;;8.13;;
20832;SDS011;56075;51.264;7.150;2022-11-20T14:10:27;28.58;;;12.18;;
20832;SDS011;56075;51.264;7.150;2022-11-20T14:13:09;29.50;;;11.10;;
20832;SDS011;56075;51.264;7.150;2022-11-20T14:15:41;28.80;;;10.83;;
20832;SDS011;56075;51.264;7.150;2022-11-20T14:18:14;27.73;;;10.93;;
20832;SDS011;56075;51.264;7.150;2022-11-20T14:20:50;30.57;;;11.53;;
20832;SDS011;56075;51.264;7.150;2022-11-20T14:23:28;29.27;;;12.13;;
20832;SDS011;56075;51.264;7.150;2022-11-20T14:26:00;25.07;;;9.37;;
20832;SDS011;56075;51.264;7.150;2022-11-20T14:28:31;30.67;;;11.17;;
20832;SDS011;56075;51.264;7.150;2022-11-20T14:31:03;29.57;;;11.57;;
20832;SDS011;56075;51.264;7.150;2022-11-20T14:33:34;29.63;;;11.90;;
20832;SDS011;56075;51.264;7.150;2022-11-20T14:36:15;33.37;;;12.97;;
20832;SDS011;56075;51.264;7.150;2022-11-20T14:38:49;31.53;;;12.20;;
20832;SDS011;56075;51.264;7.150;2022-11-20T14:41:21;33.43;;;12.00;;
20832;SDS011;56075;51.264;7.150;2022-11-20T14:43:57;28.57;;;10.47;;
20832;SDS011;56075;51.264;7.150;2022-11-20T14:46:30;36.90;;;12.00;;
20832;SDS011;56075;51.264;7.150;2022-11-20T14:49:02;32.17;;;11.80;;
20832;SDS011;56075;51.264;7.150;2022-11-20T14:51:36;33.00;;;12.10;;
20832;SDS011;56075;51.264;7.150;2022-11-20T14:54:15;29.60;;;11.03;;
20832;SDS011;56075;51.264;7.150;2022-11-20T14:59:27;33.93;;;12.40;;
20832;SDS011;56075;51.264;7.150;2022-11-20T15:02:06;33.50;;;11.80;;
20832;SDS011;56075;51.264;7.150;2022-11-20T15:04:45;30.17;;;10.17;;
20832;SDS011;56075;51.264;7.150;2022-11-20T15:07:29;29.67;;;10.93;;
20832;SDS011;56075;51.264;7.150;2022-11-20T15:10:12;30.90;;;11.50;;
20832;SDS011;56075;51.264;7.150;2022-11-20T15:12:52;32.37;;;11.37;;
20832;SDS011;56075;51.264;7.150;2022-11-20T15:15:27;30.60;;;11.50;;
20832;SDS011;56075;51.264;7.150;2022-11-20T15:18:09;21.63;;;8.00;;
20832;SDS011;56075;51.264;7.150;2022-11-20T15:20:45;30.17;;;11.33;;
20832;SDS011;56075;51.264;7.150;2022-11-20T15:23:18;30.37;;;11.20;;
20832;SDS011;56075;51.264;7.150;2022-11-20T15:25:49;25.40;;;9.50;;
20832;SDS011;56075;51.264;7.150;2022-11-20T15:28:22;28.13;;;10.33;;
20832;SDS011;56075;51.264;7.150;2022-11-20T15:30:57;33.43;;;11.00;;
20832;SDS011;56075;51.264;7.150;2022-11-20T15:33:29;30.53;;;11.53;;
20832;SDS011;56075;51.264;7.150;2022-11-20T15:36:01;30.13;;;11.53;;
20832;SDS011;56075;51.264;7.150;2022-11-20T15:38:33;29.77;;;11.00;;
20832;SDS011;56075;51.264;7.150;2022-11-20T15:41:04;23.83;;;9.27;;
20832;SDS011;56075;51.264;7.150;2022-11-20T15:43:36;33.20;;;11.50;;
20832;SDS011;56075;51.264;7.150;2022-11-20T15:46:14;20.63;;;8.27;;
20832;SDS011;56075;51.264;7.150;2022-11-20T15:48:50;30.57;;;10.80;;
20832;SDS011;56075;51.264;7.150;2022-11-20T15:53:57;29.13;;;10.80;;
20832;SDS011;56075;51.264;7.150;2022-11-20T15:56:29;25.50;;;10.80;;
20832;SDS011;56075;51.264;7.150;2022-11-20T15:59:00;26.77;;;10.73;;
20832;SDS011;56075;51.264;7.150;2022-11-20T16:01:31;28.60;;;11.20;;
20832;SDS011;56075;51.264;7.150;2022-11-20T16:04:04;25.97;;;10.67;;
20832;SDS011;56075;51.264;7.150;2022-11-20T16:06:39;31.27;;;10.83;;
20832;SDS011;56075;51.264;7.150;2022-11-20T16:09:10;27.77;;;10.33;;
20832;SDS011;56075;51.264;7.150;2022-11-20T16:11:42;26.60;;;9.63;;
20832;SDS011;56075;51.264;7.150;2022-11-20T16:14:13;24.63;;;9.07;;
20832;SDS011;56075;51.264;7.150;2022-11-20T16:17:03;27.67;;;9.83;;
20832;SDS011;56075;51.264;7.150;2022-11-20T16:19:34;26.00;;;10.30;;
20832;SDS011;56075;51.264;7.150;2022-11-20T16:22:05;30.83;;;11.00;;
20832;SDS011;56075;51.264;7.150;2022-11-20T16:24:36;32.50;;;11.70;;
20832;SDS011;56075;51.264;7.150;2022-11-20T16:27:07;28.97;;;10.63;;
20832;SDS011;56075;51.264;7.150;2022-11-20T16:29:40;29.57;;;10.53;;
20832;SDS011;56075;51.264;7.150;2022-11-20T16:32:11;28.50;;;10.20;;
20832;SDS011;56075;51.264;7.150;2022-11-20T16:34:42;27.20;;;10.77;;
20832;SDS011;56075;51.264;7.150;2022-11-20T16:37:13;27.57;;;10.40;;
20832;SDS011;56075;51.264;7.150;2022-11-20T16:39:45;29.17;;;10.03;;
20832;SDS011;56075;51.264;7.150;2022-11-20T16:42:16;29.23;;;10.07;;
20832;SDS011;56075;51.264;7.150;2022-11-20T16:44:47;27.17;;;10.07;;
20832;SDS011;56075;51.264;7.150;2022-11-20T16:47:18;26.80;;;9.80;;
20832;SDS011;56075;51.264;7.150;2022-11-20T16:49:49;33.17;;;11.50;;
20832;SDS011;56075;51.264;7.150;2022-11-20T16:52:20;25.67;;;9.73;;
20832;SDS011;56075;51.264;7.150;2022-11-20T16:54:52;30.57;;;9.57;;
20832;SDS011;56075;51.264;7.150;2022-11-20T16:57:24;24.27;;;8.77;;
20832;SDS011;56075;51.264;7.150;2022-11-20T16:59:58;23.17;;;8.47;;
20832;SDS011;56075;51.264;7.150;2022-11-20T17:02:30;23.70;;;9.27;;
20832;SDS011;56075;51.264;7.150;2022-11-20T17:05:01;27.60;;;9.10;;